sensor_id;sensor_type;location;lat;lon;timestamp;temperature;humidity
516;DHT22;244;48.508;9.052;2023-11-21T00:01:04;9.60;31.20
516;DHT22;244;48.508;9.052;2023-11-21T00:03:32;9.60;31.20
516;DHT22;244;48.508;9.052;2023-11-21T00:06:00;9.60;31.20
516;DHT22;244;48.508;9.052;2023-11-21T00:08:28;9.60;31.20
516;DHT22;244;48.508;9.052;2023-11-21T00:10:55;9.60;31.20
516;DHT22;244;48.508;9.052;2023-11-21T00:13:22;9.60;31.20
516;DHT22;244;48.508;9.052;2023-11-21T00:15:49;9.60;31.20
516;DHT22;244;48.508;9.052;2023-11-21T00:18:16;9.60;31.30
516;DHT22;244;48.508;9.052;2023-11-21T00:20:44;9.60;31.30
516;DHT22;244;48.508;9.052;2023-11-21T00:23:11;9.70;31.40
516;DHT22;244;48.508;9.052;2023-11-21T00:25:38;9.70;31.50
516;DHT22;244;48.508;9.052;2023-11-21T00:28:05;9.70;31.40
516;DHT22;244;48.508;9.052;2023-11-21T00:30:32;9.70;31.30
516;DHT22;244;48.508;9.052;2023-11-21T00:32:59;9.70;31.30
516;DHT22;244;48.508;9.052;2023-11-21T00:35:26;9.80;31.50
516;DHT22;244;48.508;9.052;2023-11-21T00:37:54;9.80;32.10
516;DHT22;244;48.508;9.052;2023-11-21T00:40:21;9.80;31.40
516;DHT22;244;48.508;9.052;2023-11-21T00:42:48;9.80;31.50
516;DHT22;244;48.508;9.052;2023-11-21T00:45:15;9.80;31.40
516;DHT22;244;48.508;9.052;2023-11-21T00:47:42;9.90;31.50
516;DHT22;244;48.508;9.052;2023-11-21T00:50:10;9.90;31.50
516;DHT22;244;48.508;9.052;2023-11-21T00:52:37;9.90;31.50
516;DHT22;244;48.508;9.052;2023-11-21T00:55:06;9.90;31.40
516;DHT22;244;48.508;9.052;2023-11-21T00:57:34;9.90;31.40
516;DHT22;244;48.508;9.052;2023-11-21T01:00:01;9.90;31.60
516;DHT22;244;48.508;9.052;2023-11-21T01:02:33;9.90;31.80
516;DHT22;244;48.508;9.052;2023-11-21T01:05:01;9.90;31.70
516;DHT22;244;48.508;9.052;2023-11-21T01:07:28;9.90;31.70
516;DHT22;244;48.508;9.052;2023-11-21T01:09:55;9.90;31.60
516;DHT22;244;48.508;9.052;2023-11-21T01:12:23;9.90;31.60
516;DHT22;244;48.508;9.052;2023-11-21T01:14:50;9.90;31.60
516;DHT22;244;48.508;9.052;2023-11-21T01:17:17;9.90;31.60
516;DHT22;244;48.508;9.052;2023-11-21T01:19:45;9.90;31.40
516;DHT22;244;48.508;9.052;2023-11-21T01:22:11;9.90;31.30
516;DHT22;244;48.508;9.052;2023-11-21T01:24:38;9.90;31.40
516;DHT22;244;48.508;9.052;2023-11-21T01:27:05;9.90;31.40
516;DHT22;244;48.508;9.052;2023-11-21T01:29:34;9.80;31.10
516;DHT22;244;48.508;9.052;2023-11-21T01:32:02;9.70;31.10
516;DHT22;244;48.508;9.052;2023-11-21T01:34:30;9.70;31.30
516;DHT22;244;48.508;9.052;2023-11-21T01:36:57;9.70;31.40
516;DHT22;244;48.508;9.052;2023-11-21T01:39:25;9.70;31.50
516;DHT22;244;48.508;9.052;2023-11-21T01:41:52;9.60;31.50
516;DHT22;244;48.508;9.052;2023-11-21T01:44:19;9.60;31.60
516;DHT22;244;48.508;9.052;2023-11-21T01:46:47;9.60;31.80
516;DHT22;244;48.508;9.052;2023-11-21T01:49:15;9.60;31.80
516;DHT22;244;48.508;9.052;2023-11-21T01:51:47;9.60;31.90
516;DHT22;244;48.508;9.052;2023-11-21T01:54:14;9.60;31.80
516;DHT22;244;48.508;9.052;2023-11-21T01:56:42;9.60;31.80
516;DHT22;244;48.508;9.052;2023-11-21T01:59:10;9.60;31.90
516;DHT22;244;48.508;9.052;2023-11-21T02:01:38;9.70;32.30
516;DHT22;244;48.508;9.052;2023-11-21T02:04:08;9.70;32.00
516;DHT22;244;48.508;9.052;2023-11-21T02:06:35;9.70;32.00
516;DHT22;244;48.508;9.052;2023-11-21T02:09:02;9.60;31.70
516;DHT22;244;48.508;9.052;2023-11-21T02:11:30;9.60;31.70
516;DHT22;244;48.508;9.052;2023-11-21T02:14:00;9.50;31.70
516;DHT22;244;48.508;9.052;2023-11-21T02:16:27;9.60;31.80
516;DHT22;244;48.508;9.052;2023-11-21T02:18:57;9.60;31.70
516;DHT22;244;48.508;9.052;2023-11-21T02:21:26;9.50;31.70
516;DHT22;244;48.508;9.052;2023-11-21T02:23:56;9.50;31.70
516;DHT22;244;48.508;9.052;2023-11-21T02:26:22;9.50;31.90
516;DHT22;244;48.508;9.052;2023-11-21T02:28:51;9.60;32.10
516;DHT22;244;48.508;9.052;2023-11-21T02:31:19;9.60;32.10
516;DHT22;244;48.508;9.052;2023-11-21T02:33:45;9.60;31.90
516;DHT22;244;48.508;9.052;2023-11-21T02:36:12;9.60;31.80
516;DHT22;244;48.508;9.052;2023-11-21T02:38:39;9.50;31.50
516;DHT22;244;48.508;9.052;2023-11-21T02:41:08;9.50;31.50
516;DHT22;244;48.508;9.052;2023-11-21T02:43:34;9.50;31.50
516;DHT22;244;48.508;9.052;2023-11-21T02:46:04;9.50;31.50
516;DHT22;244;48.508;9.052;2023-11-21T02:48:31;9.60;31.50
516;DHT22;244;48.508;9.052;2023-11-21T02:50:58;9.60;31.40
516;DHT22;244;48.508;9.052;2023-11-21T02:53:25;9.60;31.20
516;DHT22;244;48.508;9.052;2023-11-21T02:55:52;9.60;31.30
516;DHT22;244;48.508;9.052;2023-11-21T02:58:21;9.60;31.30
516;DHT22;244;48.508;9.052;2023-11-21T03:00:48;9.70;31.30
516;DHT22;244;48.508;9.052;2023-11-21T03:03:15;9.70;31.30
516;DHT22;244;48.508;9.052;2023-11-21T03:05:42;9.70;31.40
516;DHT22;244;48.508;9.052;2023-11-21T03:08:09;9.70;31.30
516;DHT22;244;48.508;9.052;2023-11-21T03:10:36;9.70;31.30
516;DHT22;244;48.508;9.052;2023-11-21T03:13:03;9.70;31.20
516;DHT22;244;48.508;9.052;2023-11-21T03:15:32;9.70;31.20
516;DHT22;244;48.508;9.052;2023-11-21T03:18:00;9.70;32.00
516;DHT22;244;48.508;9.052;2023-11-21T03:20:28;9.80;31.20
516;DHT22;244;48.508;9.052;2023-11-21T03:22:55;9.80;31.20
516;DHT22;244;48.508;9.052;2023-11-21T03:25:22;9.80;31.10
516;DHT22;244;48.508;9.052;2023-11-21T03:27:49;9.80;31.10
516;DHT22;244;48.508;9.052;2023-11-21T03:30:17;9.80;31.10
516;DHT22;244;48.508;9.052;2023-11-21T03:32:45;9.70;31.10
516;DHT22;244;48.508;9.052;2023-11-21T03:35:12;9.70;31.80
516;DHT22;244;48.508;9.052;2023-11-21T03:37:39;9.70;31.20
516;DHT22;244;48.508;9.052;2023-11-21T03:40:08;9.70;31.10
516;DHT22;244;48.508;9.052;2023-11-21T03:42:35;9.80;31.20
516;DHT22;244;48.508;9.052;2023-11-21T03:45:02;9.80;31.10
516;DHT22;244;48.508;9.052;2023-11-21T03:47:30;9.80;31.10
516;DHT22;244;48.508;9.052;2023-11-21T03:49:59;9.90;31.20
516;DHT22;244;48.508;9.052;2023-11-21T03:52:26;9.90;31.20
516;DHT22;244;48.508;9.052;2023-11-21T03:54:54;9.90;31.20
516;DHT22;244;48.508;9.052;2023-11-21T03:57:21;10.00;30.30
516;DHT22;244;48.508;9.052;2023-11-21T03:59:48;10.00;30.20
516;DHT22;244;48.508;9.052;2023-11-21T04:02:15;10.00;30.20
516;DHT22;244;48.508;9.052;2023-11-21T04:04:42;10.00;30.10
516;DHT22;244;48.508;9.052;2023-11-21T04:07:11;10.00;30.00
516;DHT22;244;48.508;9.052;2023-11-21T04:09:39;10.00;30.00
516;DHT22;244;48.508;9.052;2023-11-21T04:12:07;10.00;30.10
516;DHT22;244;48.508;9.052;2023-11-21T04:14:35;10.00;30.00
516;DHT22;244;48.508;9.052;2023-11-21T04:17:02;10.00;30.00
516;DHT22;244;48.508;9.052;2023-11-21T04:19:29;9.90;30.70
516;DHT22;244;48.508;9.052;2023-11-21T04:21:56;9.90;30.60
516;DHT22;244;48.508;9.052;2023-11-21T04:24:25;9.90;30.70
516;DHT22;244;48.508;9.052;2023-11-21T04:26:51;9.90;30.70
516;DHT22;244;48.508;9.052;2023-11-21T04:29:19;9.90;30.70
516;DHT22;244;48.508;9.052;2023-11-21T04:31:46;9.90;30.70
516;DHT22;244;48.508;9.052;2023-11-21T04:34:14;10.00;30.70
516;DHT22;244;48.508;9.052;2023-11-21T04:36:41;10.00;29.90
516;DHT22;244;48.508;9.052;2023-11-21T04:39:08;10.00;29.80
516;DHT22;244;48.508;9.052;2023-11-21T04:41:36;10.00;29.80
516;DHT22;244;48.508;9.052;2023-11-21T04:44:05;9.90;30.40
516;DHT22;244;48.508;9.052;2023-11-21T04:46:32;10.00;29.80
516;DHT22;244;48.508;9.052;2023-11-21T04:48:59;10.00;29.80
516;DHT22;244;48.508;9.052;2023-11-21T04:51:26;10.00;29.80
516;DHT22;244;48.508;9.052;2023-11-21T04:53:53;10.00;29.70
516;DHT22;244;48.508;9.052;2023-11-21T04:56:20;10.00;30.30
516;DHT22;244;48.508;9.052;2023-11-21T04:58:48;10.10;30.30
516;DHT22;244;48.508;9.052;2023-11-21T05:01:15;10.10;29.70
516;DHT22;244;48.508;9.052;2023-11-21T05:03:43;10.10;29.60
516;DHT22;244;48.508;9.052;2023-11-21T05:06:10;10.10;29.60
516;DHT22;244;48.508;9.052;2023-11-21T05:08:37;10.10;29.60
516;DHT22;244;48.508;9.052;2023-11-21T05:11:04;10.20;29.50
516;DHT22;244;48.508;9.052;2023-11-21T05:13:34;10.20;29.50
516;DHT22;244;48.508;9.052;2023-11-21T05:16:02;10.20;29.40
516;DHT22;244;48.508;9.052;2023-11-21T05:18:31;10.20;29.40
516;DHT22;244;48.508;9.052;2023-11-21T05:20:59;10.20;29.40
516;DHT22;244;48.508;9.052;2023-11-21T05:23:26;10.20;29.30
516;DHT22;244;48.508;9.052;2023-11-21T05:25:53;10.20;29.90
516;DHT22;244;48.508;9.052;2023-11-21T05:28:22;10.20;29.80
516;DHT22;244;48.508;9.052;2023-11-21T05:30:48;10.20;29.30
516;DHT22;244;48.508;9.052;2023-11-21T05:33:17;10.20;29.30
516;DHT22;244;48.508;9.052;2023-11-21T05:35:44;10.20;29.30
516;DHT22;244;48.508;9.052;2023-11-21T05:38:11;10.20;29.30
516;DHT22;244;48.508;9.052;2023-11-21T05:40:38;10.20;29.20
516;DHT22;244;48.508;9.052;2023-11-21T05:43:07;10.20;29.20
516;DHT22;244;48.508;9.052;2023-11-21T05:45:34;10.20;29.20
516;DHT22;244;48.508;9.052;2023-11-21T05:48:00;10.10;29.10
516;DHT22;244;48.508;9.052;2023-11-21T05:50:30;10.10;29.20
516;DHT22;244;48.508;9.052;2023-11-21T05:52:58;10.10;29.30
516;DHT22;244;48.508;9.052;2023-11-21T05:55:26;10.10;29.30
516;DHT22;244;48.508;9.052;2023-11-21T05:57:53;10.10;29.20
516;DHT22;244;48.508;9.052;2023-11-21T06:00:20;10.10;29.20
516;DHT22;244;48.508;9.052;2023-11-21T06:02:47;10.10;29.20
516;DHT22;244;48.508;9.052;2023-11-21T06:05:16;10.10;29.70
516;DHT22;244;48.508;9.052;2023-11-21T06:07:45;10.10;29.00
516;DHT22;244;48.508;9.052;2023-11-21T06:10:12;10.00;28.80
516;DHT22;244;48.508;9.052;2023-11-21T06:12:41;10.00;28.80
516;DHT22;244;48.508;9.052;2023-11-21T06:15:09;9.90;29.50
516;DHT22;244;48.508;9.052;2023-11-21T06:17:39;9.70;29.60
516;DHT22;244;48.508;9.052;2023-11-21T06:20:07;9.70;29.80
516;DHT22;244;48.508;9.052;2023-11-21T06:22:37;9.60;29.80
516;DHT22;244;48.508;9.052;2023-11-21T06:25:07;9.60;29.90
516;DHT22;244;48.508;9.052;2023-11-21T06:27:36;9.50;29.90
516;DHT22;244;48.508;9.052;2023-11-21T06:30:05;9.50;29.90
516;DHT22;244;48.508;9.052;2023-11-21T06:32:32;9.50;29.90
516;DHT22;244;48.508;9.052;2023-11-21T06:35:00;9.50;29.80
516;DHT22;244;48.508;9.052;2023-11-21T06:37:27;9.50;30.00
516;DHT22;244;48.508;9.052;2023-11-21T06:39:54;9.50;30.00
516;DHT22;244;48.508;9.052;2023-11-21T06:42:24;9.60;30.00
516;DHT22;244;48.508;9.052;2023-11-21T06:44:51;9.60;30.00
516;DHT22;244;48.508;9.052;2023-11-21T06:47:19;9.60;30.10
516;DHT22;244;48.508;9.052;2023-11-21T06:49:46;9.70;30.20
516;DHT22;244;48.508;9.052;2023-11-21T06:52:14;9.70;30.20
516;DHT22;244;48.508;9.052;2023-11-21T06:54:41;9.80;30.20
516;DHT22;244;48.508;9.052;2023-11-21T06:57:08;9.80;30.10
516;DHT22;244;48.508;9.052;2023-11-21T06:59:37;9.80;30.10
516;DHT22;244;48.508;9.052;2023-11-21T07:02:04;9.80;30.20
516;DHT22;244;48.508;9.052;2023-11-21T07:04:32;9.90;30.30
516;DHT22;244;48.508;9.052;2023-11-21T07:06:59;9.90;30.20
516;DHT22;244;48.508;9.052;2023-11-21T07:09:26;10.00;29.60
516;DHT22;244;48.508;9.052;2023-11-21T07:11:53;10.00;29.40
516;DHT22;244;48.508;9.052;2023-11-21T07:14:20;10.10;29.40
516;DHT22;244;48.508;9.052;2023-11-21T07:16:49;10.10;29.40
516;DHT22;244;48.508;9.052;2023-11-21T07:19:18;10.10;29.50
516;DHT22;244;48.508;9.052;2023-11-21T07:21:45;10.20;29.60
516;DHT22;244;48.508;9.052;2023-11-21T07:24:12;10.20;29.60
516;DHT22;244;48.508;9.052;2023-11-21T07:26:39;10.20;29.50
516;DHT22;244;48.508;9.052;2023-11-21T07:29:06;10.30;29.50
516;DHT22;244;48.508;9.052;2023-11-21T07:31:33;10.30;29.40
516;DHT22;244;48.508;9.052;2023-11-21T07:34:02;10.30;29.50
516;DHT22;244;48.508;9.052;2023-11-21T07:36:29;10.40;29.50
516;DHT22;244;48.508;9.052;2023-11-21T07:38:56;10.40;29.40
516;DHT22;244;48.508;9.052;2023-11-21T07:41:23;10.40;29.40
516;DHT22;244;48.508;9.052;2023-11-21T07:43:49;10.50;29.40
516;DHT22;244;48.508;9.052;2023-11-21T07:46:16;10.50;29.30
516;DHT22;244;48.508;9.052;2023-11-21T07:48:43;10.60;29.30
516;DHT22;244;48.508;9.052;2023-11-21T07:51:13;10.60;29.10
516;DHT22;244;48.508;9.052;2023-11-21T07:53:40;10.70;29.10
516;DHT22;244;48.508;9.052;2023-11-21T07:56:08;10.70;29.10
516;DHT22;244;48.508;9.052;2023-11-21T07:58:36;10.70;29.00
516;DHT22;244;48.508;9.052;2023-11-21T08:01:04;10.70;28.90
516;DHT22;244;48.508;9.052;2023-11-21T08:03:31;10.80;28.90
516;DHT22;244;48.508;9.052;2023-11-21T08:05:58;10.80;28.80
516;DHT22;244;48.508;9.052;2023-11-21T08:08:26;10.90;28.90
516;DHT22;244;48.508;9.052;2023-11-21T08:10:53;10.90;28.90
516;DHT22;244;48.508;9.052;2023-11-21T08:13:23;11.00;28.90
516;DHT22;244;48.508;9.052;2023-11-21T08:15:50;11.00;28.80
516;DHT22;244;48.508;9.052;2023-11-21T08:18:17;11.10;28.70
516;DHT22;244;48.508;9.052;2023-11-21T08:20:44;11.20;28.70
516;DHT22;244;48.508;9.052;2023-11-21T08:23:14;11.20;28.60
516;DHT22;244;48.508;9.052;2023-11-21T08:25:43;11.20;28.60
516;DHT22;244;48.508;9.052;2023-11-21T08:28:11;11.30;28.60
516;DHT22;244;48.508;9.052;2023-11-21T08:30:38;11.30;28.60
516;DHT22;244;48.508;9.052;2023-11-21T08:33:05;11.30;28.60
516;DHT22;244;48.508;9.052;2023-11-21T08:35:32;11.30;28.60
516;DHT22;244;48.508;9.052;2023-11-21T08:37:59;11.30;28.60
516;DHT22;244;48.508;9.052;2023-11-21T08:40:26;11.30;28.60
516;DHT22;244;48.508;9.052;2023-11-21T08:42:54;11.40;28.70
516;DHT22;244;48.508;9.052;2023-11-21T08:45:21;11.40;28.70
516;DHT22;244;48.508;9.052;2023-11-21T08:47:48;11.50;28.80
516;DHT22;244;48.508;9.052;2023-11-21T08:50:14;11.50;28.60
516;DHT22;244;48.508;9.052;2023-11-21T08:52:42;11.50;28.50
516;DHT22;244;48.508;9.052;2023-11-21T08:55:11;11.60;28.60
516;DHT22;244;48.508;9.052;2023-11-21T08:57:39;11.60;28.60
516;DHT22;244;48.508;9.052;2023-11-21T09:00:09;11.70;28.50
516;DHT22;244;48.508;9.052;2023-11-21T09:02:37;11.80;28.50
516;DHT22;244;48.508;9.052;2023-11-21T09:05:05;11.80;28.40
516;DHT22;244;48.508;9.052;2023-11-21T09:07:32;11.90;28.40
516;DHT22;244;48.508;9.052;2023-11-21T09:09:59;12.00;28.40
516;DHT22;244;48.508;9.052;2023-11-21T09:12:26;12.00;28.30
516;DHT22;244;48.508;9.052;2023-11-21T09:14:53;12.10;28.20
516;DHT22;244;48.508;9.052;2023-11-21T09:17:21;12.20;28.20
516;DHT22;244;48.508;9.052;2023-11-21T09:19:48;12.30;28.10
516;DHT22;244;48.508;9.052;2023-11-21T09:22:17;12.40;28.00
516;DHT22;244;48.508;9.052;2023-11-21T09:24:44;12.50;27.80
516;DHT22;244;48.508;9.052;2023-11-21T09:27:11;12.60;27.70
516;DHT22;244;48.508;9.052;2023-11-21T09:29:38;12.70;27.70
516;DHT22;244;48.508;9.052;2023-11-21T09:32:06;12.70;27.60
516;DHT22;244;48.508;9.052;2023-11-21T09:34:35;12.80;27.70
516;DHT22;244;48.508;9.052;2023-11-21T09:37:04;13.00;27.80
516;DHT22;244;48.508;9.052;2023-11-21T09:39:32;13.20;27.70
516;DHT22;244;48.508;9.052;2023-11-21T09:42:05;13.60;27.80
516;DHT22;244;48.508;9.052;2023-11-21T09:44:46;14.00;27.50
516;DHT22;244;48.508;9.052;2023-11-21T09:47:15;14.20;27.10
516;DHT22;244;48.508;9.052;2023-11-21T09:49:47;14.20;26.40
516;DHT22;244;48.508;9.052;2023-11-21T09:52:19;14.20;26.40
516;DHT22;244;48.508;9.052;2023-11-21T09:54:49;14.00;26.20
516;DHT22;244;48.508;9.052;2023-11-21T09:57:17;14.00;26.20
516;DHT22;244;48.508;9.052;2023-11-21T09:59:45;13.90;26.10
516;DHT22;244;48.508;9.052;2023-11-21T10:02:14;13.80;26.70
516;DHT22;244;48.508;9.052;2023-11-21T10:04:45;13.80;26.70
516;DHT22;244;48.508;9.052;2023-11-21T10:07:13;13.70;26.60
516;DHT22;244;48.508;9.052;2023-11-21T10:09:43;13.70;26.10
516;DHT22;244;48.508;9.052;2023-11-21T10:12:12;13.60;25.90
516;DHT22;244;48.508;9.052;2023-11-21T10:14:41;13.60;25.90
516;DHT22;244;48.508;9.052;2023-11-21T10:17:10;13.60;25.50
516;DHT22;244;48.508;9.052;2023-11-21T10:19:39;13.50;25.50
516;DHT22;244;48.508;9.052;2023-11-21T10:22:07;13.60;25.50
516;DHT22;244;48.508;9.052;2023-11-21T10:24:35;13.70;25.50
516;DHT22;244;48.508;9.052;2023-11-21T10:27:04;13.80;25.50
516;DHT22;244;48.508;9.052;2023-11-21T10:29:31;13.90;25.40
516;DHT22;244;48.508;9.052;2023-11-21T10:32:02;14.00;25.00
516;DHT22;244;48.508;9.052;2023-11-21T10:34:29;14.00;25.00
516;DHT22;244;48.508;9.052;2023-11-21T10:36:57;14.00;25.10
516;DHT22;244;48.508;9.052;2023-11-21T10:39:26;14.00;25.30
516;DHT22;244;48.508;9.052;2023-11-21T10:41:56;13.90;25.20
516;DHT22;244;48.508;9.052;2023-11-21T10:44:23;13.70;25.00
516;DHT22;244;48.508;9.052;2023-11-21T10:46:51;13.60;25.00
516;DHT22;244;48.508;9.052;2023-11-21T10:49:21;13.50;24.90
516;DHT22;244;48.508;9.052;2023-11-21T10:51:50;13.30;24.90
516;DHT22;244;48.508;9.052;2023-11-21T10:54:19;13.20;24.90
516;DHT22;244;48.508;9.052;2023-11-21T10:56:50;13.00;25.00
516;DHT22;244;48.508;9.052;2023-11-21T10:59:18;12.90;25.30
516;DHT22;244;48.508;9.052;2023-11-21T11:01:47;12.70;25.30
516;DHT22;244;48.508;9.052;2023-11-21T11:04:18;12.50;25.20
516;DHT22;244;48.508;9.052;2023-11-21T11:06:50;12.30;25.40
516;DHT22;244;48.508;9.052;2023-11-21T11:09:17;12.10;25.60
516;DHT22;244;48.508;9.052;2023-11-21T11:11:45;12.00;26.00
516;DHT22;244;48.508;9.052;2023-11-21T11:14:14;11.90;26.20
516;DHT22;244;48.508;9.052;2023-11-21T11:16:41;11.80;27.10
516;DHT22;244;48.508;9.052;2023-11-21T11:19:09;11.70;27.20
516;DHT22;244;48.508;9.052;2023-11-21T11:21:46;11.70;26.80
516;DHT22;244;48.508;9.052;2023-11-21T11:24:47;11.70;27.10
516;DHT22;244;48.508;9.052;2023-11-21T11:27:22;11.70;27.10
516;DHT22;244;48.508;9.052;2023-11-21T11:30:00;11.60;27.10
516;DHT22;244;48.508;9.052;2023-11-21T11:32:40;11.50;27.80
516;DHT22;244;48.508;9.052;2023-11-21T11:35:13;11.50;27.20
516;DHT22;244;48.508;9.052;2023-11-21T11:37:43;11.50;27.20
516;DHT22;244;48.508;9.052;2023-11-21T11:40:11;11.50;27.10
516;DHT22;244;48.508;9.052;2023-11-21T11:42:38;11.40;27.20
516;DHT22;244;48.508;9.052;2023-11-21T11:45:18;11.40;28.00
516;DHT22;244;48.508;9.052;2023-11-21T11:47:47;11.40;27.90
516;DHT22;244;48.508;9.052;2023-11-21T11:50:14;11.40;27.90
516;DHT22;244;48.508;9.052;2023-11-21T11:52:43;11.50;28.00
516;DHT22;244;48.508;9.052;2023-11-21T11:55:11;11.50;28.10
516;DHT22;244;48.508;9.052;2023-11-21T11:57:37;11.50;28.30
516;DHT22;244;48.508;9.052;2023-11-21T12:00:16;11.60;28.50
516;DHT22;244;48.508;9.052;2023-11-21T12:02:47;11.60;28.60
516;DHT22;244;48.508;9.052;2023-11-21T12:05:15;11.70;28.40
516;DHT22;244;48.508;9.052;2023-11-21T12:07:48;11.80;28.40
516;DHT22;244;48.508;9.052;2023-11-21T12:10:17;11.80;28.40
516;DHT22;244;48.508;9.052;2023-11-21T12:12:45;11.70;28.30
516;DHT22;244;48.508;9.052;2023-11-21T12:15:13;11.70;28.30
516;DHT22;244;48.508;9.052;2023-11-21T12:17:43;11.70;28.50
516;DHT22;244;48.508;9.052;2023-11-21T12:20:13;11.60;28.60
516;DHT22;244;48.508;9.052;2023-11-21T12:22:45;11.70;28.70
516;DHT22;244;48.508;9.052;2023-11-21T12:25:16;11.80;28.70
516;DHT22;244;48.508;9.052;2023-11-21T12:27:44;11.80;28.60
516;DHT22;244;48.508;9.052;2023-11-21T12:30:13;11.90;28.60
516;DHT22;244;48.508;9.052;2023-11-21T12:32:42;11.90;28.40
516;DHT22;244;48.508;9.052;2023-11-21T12:35:11;12.00;28.60
516;DHT22;244;48.508;9.052;2023-11-21T12:37:39;12.20;29.30
516;DHT22;244;48.508;9.052;2023-11-21T12:40:09;12.40;28.60
516;DHT22;244;48.508;9.052;2023-11-21T12:42:37;12.50;28.60
516;DHT22;244;48.508;9.052;2023-11-21T12:45:10;12.50;28.40
516;DHT22;244;48.508;9.052;2023-11-21T12:47:46;12.40;28.20
516;DHT22;244;48.508;9.052;2023-11-21T12:50:15;12.30;28.10
516;DHT22;244;48.508;9.052;2023-11-21T12:52:43;12.20;28.20
516;DHT22;244;48.508;9.052;2023-11-21T12:55:15;12.20;28.10
516;DHT22;244;48.508;9.052;2023-11-21T12:57:45;12.10;28.10
516;DHT22;244;48.508;9.052;2023-11-21T13:00:13;12.10;28.10
516;DHT22;244;48.508;9.052;2023-11-21T13:02:52;12.00;28.20
516;DHT22;244;48.508;9.052;2023-11-21T13:05:29;12.00;28.20
516;DHT22;244;48.508;9.052;2023-11-21T13:07:57;11.80;28.10
516;DHT22;244;48.508;9.052;2023-11-21T13:10:25;11.70;28.10
516;DHT22;244;48.508;9.052;2023-11-21T13:12:57;11.60;28.10
516;DHT22;244;48.508;9.052;2023-11-21T13:15:26;11.50;28.30
516;DHT22;244;48.508;9.052;2023-11-21T13:17:54;11.50;28.50
516;DHT22;244;48.508;9.052;2023-11-21T13:20:21;11.50;28.50
516;DHT22;244;48.508;9.052;2023-11-21T13:22:52;11.60;28.70
516;DHT22;244;48.508;9.052;2023-11-21T13:25:23;11.60;28.50
516;DHT22;244;48.508;9.052;2023-11-21T13:27:53;11.60;28.40
516;DHT22;244;48.508;9.052;2023-11-21T13:30:20;11.60;28.30
516;DHT22;244;48.508;9.052;2023-11-21T13:32:52;11.70;28.30
516;DHT22;244;48.508;9.052;2023-11-21T13:35:19;11.80;28.40
516;DHT22;244;48.508;9.052;2023-11-21T13:38:02;11.90;29.10
516;DHT22;244;48.508;9.052;2023-11-21T13:40:31;12.00;28.40
516;DHT22;244;48.508;9.052;2023-11-21T13:43:00;12.00;28.20
516;DHT22;244;48.508;9.052;2023-11-21T13:45:30;11.90;28.10
516;DHT22;244;48.508;9.052;2023-11-21T13:47:57;11.90;28.00
516;DHT22;244;48.508;9.052;2023-11-21T13:50:25;11.70;27.90
516;DHT22;244;48.508;9.052;2023-11-21T13:52:59;11.70;28.20
516;DHT22;244;48.508;9.052;2023-11-21T13:55:29;11.60;28.50
516;DHT22;244;48.508;9.052;2023-11-21T13:57:56;11.50;28.50
516;DHT22;244;48.508;9.052;2023-11-21T14:00:24;11.50;28.50
516;DHT22;244;48.508;9.052;2023-11-21T14:03:11;11.50;28.60
516;DHT22;244;48.508;9.052;2023-11-21T14:05:47;11.50;29.30
516;DHT22;244;48.508;9.052;2023-11-21T14:08:19;11.40;28.70
516;DHT22;244;48.508;9.052;2023-11-21T14:10:47;11.50;28.70
516;DHT22;244;48.508;9.052;2023-11-21T14:13:21;11.50;29.00
516;DHT22;244;48.508;9.052;2023-11-21T14:15:49;11.50;28.70
516;DHT22;244;48.508;9.052;2023-11-21T14:18:17;11.50;28.90
516;DHT22;244;48.508;9.052;2023-11-21T14:20:51;11.50;29.00
516;DHT22;244;48.508;9.052;2023-11-21T14:23:19;11.60;28.90
516;DHT22;244;48.508;9.052;2023-11-21T14:25:47;11.60;29.10
516;DHT22;244;48.508;9.052;2023-11-21T14:28:14;11.60;29.40
516;DHT22;244;48.508;9.052;2023-11-21T14:30:41;11.60;28.90
516;DHT22;244;48.508;9.052;2023-11-21T14:33:08;11.50;28.70
516;DHT22;244;48.508;9.052;2023-11-21T14:35:37;11.40;28.70
516;DHT22;244;48.508;9.052;2023-11-21T14:38:04;11.40;28.70
516;DHT22;244;48.508;9.052;2023-11-21T14:40:33;11.30;28.60
516;DHT22;244;48.508;9.052;2023-11-21T14:43:01;11.20;28.60
516;DHT22;244;48.508;9.052;2023-11-21T14:45:31;11.00;28.40
516;DHT22;244;48.508;9.052;2023-11-21T14:47:58;10.90;28.30
516;DHT22;244;48.508;9.052;2023-11-21T14:50:32;10.70;28.40
516;DHT22;244;48.508;9.052;2023-11-21T14:53:18;10.60;28.10
516;DHT22;244;48.508;9.052;2023-11-21T14:56:09;10.40;28.00
516;DHT22;244;48.508;9.052;2023-11-21T14:58:35;10.30;28.60
516;DHT22;244;48.508;9.052;2023-11-21T15:01:04;10.20;28.70
516;DHT22;244;48.508;9.052;2023-11-21T15:03:30;10.20;28.90
516;DHT22;244;48.508;9.052;2023-11-21T15:06:15;10.20;29.20
516;DHT22;244;48.508;9.052;2023-11-21T15:08:48;10.20;29.40
516;DHT22;244;48.508;9.052;2023-11-21T15:11:20;10.20;29.50
516;DHT22;244;48.508;9.052;2023-11-21T15:13:50;10.20;29.40
516;DHT22;244;48.508;9.052;2023-11-21T15:16:18;10.20;29.50
516;DHT22;244;48.508;9.052;2023-11-21T15:18:45;10.20;29.40
516;DHT22;244;48.508;9.052;2023-11-21T15:21:12;10.30;29.40
516;DHT22;244;48.508;9.052;2023-11-21T15:23:39;10.30;29.20
516;DHT22;244;48.508;9.052;2023-11-21T15:26:07;10.30;29.20
516;DHT22;244;48.508;9.052;2023-11-21T15:28:37;10.30;29.10
516;DHT22;244;48.508;9.052;2023-11-21T15:31:04;10.30;29.00
516;DHT22;244;48.508;9.052;2023-11-21T15:33:32;10.30;29.10
516;DHT22;244;48.508;9.052;2023-11-21T15:36:01;10.30;29.20
516;DHT22;244;48.508;9.052;2023-11-21T15:38:28;10.30;29.30
516;DHT22;244;48.508;9.052;2023-11-21T15:40:55;10.40;29.50
516;DHT22;244;48.508;9.052;2023-11-21T15:43:24;10.30;29.50
516;DHT22;244;48.508;9.052;2023-11-21T15:45:54;10.40;29.50
516;DHT22;244;48.508;9.052;2023-11-21T15:48:22;10.40;29.60
516;DHT22;244;48.508;9.052;2023-11-21T15:50:49;10.40;30.30
516;DHT22;244;48.508;9.052;2023-11-21T15:53:17;10.50;29.80
516;DHT22;244;48.508;9.052;2023-11-21T15:55:44;10.50;29.70
516;DHT22;244;48.508;9.052;2023-11-21T15:58:11;10.50;29.60
516;DHT22;244;48.508;9.052;2023-11-21T16:00:38;10.60;29.60
516;DHT22;244;48.508;9.052;2023-11-21T16:03:08;10.60;29.60
516;DHT22;244;48.508;9.052;2023-11-21T16:05:37;10.60;29.50
516;DHT22;244;48.508;9.052;2023-11-21T16:08:04;10.60;29.60
516;DHT22;244;48.508;9.052;2023-11-21T16:10:31;10.60;29.70
516;DHT22;244;48.508;9.052;2023-11-21T16:12:58;10.70;29.80
516;DHT22;244;48.508;9.052;2023-11-21T16:15:25;10.70;29.80
516;DHT22;244;48.508;9.052;2023-11-21T16:17:52;10.60;29.70
516;DHT22;244;48.508;9.052;2023-11-21T16:20:20;10.70;29.70
516;DHT22;244;48.508;9.052;2023-11-21T16:22:48;10.60;29.50
516;DHT22;244;48.508;9.052;2023-11-21T16:25:15;10.60;29.30
516;DHT22;244;48.508;9.052;2023-11-21T16:27:42;10.60;29.40
516;DHT22;244;48.508;9.052;2023-11-21T16:30:10;10.50;29.30
516;DHT22;244;48.508;9.052;2023-11-21T16:32:37;10.50;29.20
516;DHT22;244;48.508;9.052;2023-11-21T16:35:04;10.50;29.40
516;DHT22;244;48.508;9.052;2023-11-21T16:37:33;10.50;29.60
516;DHT22;244;48.508;9.052;2023-11-21T16:40:00;10.50;29.60
516;DHT22;244;48.508;9.052;2023-11-21T16:42:27;10.50;29.80
516;DHT22;244;48.508;9.052;2023-11-21T16:44:56;10.50;29.90
516;DHT22;244;48.508;9.052;2023-11-21T16:47:22;10.50;30.60